createdAt,value
2018-04-19T00:01:03.436Z,90.40
2018-04-19T00:03:32.320Z,90.50
2018-04-19T00:06:01.953Z,90.60
2018-04-19T00:08:30.843Z,90.40
2018-04-19T00:10:59.699Z,90.40
2018-04-19T00:13:28.564Z,90.20
2018-04-19T00:15:57.482Z,90.50
2018-04-19T00:18:26.343Z,90.70
2018-04-19T00:20:55.209Z,90.80
2018-04-19T00:23:24.091Z,90.90
2018-04-19T00:25:52.989Z,90.90
2018-04-19T00:28:22.322Z,90.90
2018-04-19T00:30:52.127Z,91.10
2018-04-19T00:33:21.037Z,91.10
2018-04-19T00:35:49.896Z,90.90
2018-04-19T00:38:18.768Z,90.80
2018-04-19T00:40:47.642Z,90.80
2018-04-19T00:43:17.302Z,90.70
2018-04-19T00:45:46.163Z,90.70
2018-04-19T00:48:15.819Z,90.90
2018-04-19T00:50:44.679Z,90.90
2018-04-19T00:53:13.544Z,90.90
2018-04-19T00:55:42.447Z,90.90
2018-04-19T00:58:11.336Z,91.00
2018-04-19T01:00:40.195Z,90.90
2018-04-19T01:03:09.088Z,91.00
2018-04-19T01:05:38.715Z,91.00
2018-04-19T01:08:07.573Z,90.90
2018-04-19T01:10:36.483Z,90.70
2018-04-19T01:13:05.369Z,90.60
2018-04-19T01:15:34.223Z,90.70
2018-04-19T01:18:03.108Z,90.60
2018-04-19T01:20:32.003Z,90.60
2018-04-19T01:23:00.867Z,90.40
2018-04-19T01:25:29.795Z,90.30
2018-04-19T01:27:58.663Z,90.50
2018-04-19T01:30:28.287Z,90.70
2018-04-19T01:32:57.168Z,90.70
2018-04-19T01:35:43.773Z,90.60
2018-04-19T01:38:12.674Z,90.50
2018-04-19T01:40:41.539Z,90.50
2018-04-19T01:43:10.425Z,90.60
2018-04-19T01:45:39.335Z,90.70
2018-04-19T01:48:08.202Z,90.60
2018-04-19T01:50:37.101Z,90.40
2018-04-19T01:53:05.996Z,90.40
2018-04-19T01:55:34.855Z,90.60
2018-04-19T01:58:05.487Z,90.40
2018-04-19T02:00:34.350Z,90.30
2018-04-19T02:03:03.231Z,90.30
2018-04-19T02:05:32.115Z,90.30
2018-04-19T02:08:00.971Z,90.40
2018-04-19T02:10:29.827Z,90.50
2018-04-19T02:12:58.723Z,90.50
2018-04-19T02:15:27.582Z,90.60
2018-04-19T02:17:57.215Z,90.60
2018-04-19T02:20:26.113Z,90.50
2018-04-19T02:22:54.964Z,90.40
2018-04-19T02:25:23.827Z,90.30
2018-04-19T02:27:52.721Z,90.30
2018-04-19T02:30:21.582Z,90.40
2018-04-19T02:32:50.443Z,90.60
2018-04-19T02:35:19.343Z,90.50
2018-04-19T02:37:48.204Z,90.50
2018-04-19T02:40:17.067Z,90.40
2018-04-19T02:42:45.951Z,90.30
2018-04-19T02:45:14.807Z,90.40
2018-04-19T02:47:43.671Z,90.30
2018-04-19T02:50:13.316Z,90.30
2018-04-19T02:52:42.215Z,90.30
2018-04-19T02:55:11.080Z,90.40
2018-04-19T02:57:39.943Z,90.50
2018-04-19T03:00:08.895Z,90.40
2018-04-19T03:05:12.984Z,90.50
2018-04-19T03:07:41.887Z,90.50
2018-04-19T03:10:10.747Z,90.90
2018-04-19T03:12:39.604Z,90.50
2018-04-19T03:15:08.490Z,90.40
2018-04-19T03:17:37.350Z,90.50
2018-04-19T03:20:06.240Z,90.60
2018-04-19T03:22:35.104Z,90.60
2018-04-19T03:25:03.972Z,90.80
2018-04-19T03:27:32.895Z,91.00
2018-04-19T03:30:01.787Z,91.00
2018-04-19T03:32:30.652Z,90.90
2018-04-19T03:34:59.561Z,90.70
2018-04-19T03:37:29.196Z,90.80
2018-04-19T03:39:58.084Z,90.80
2018-04-19T03:42:26.939Z,90.70
2018-04-19T03:44:55.802Z,90.70
2018-04-19T03:47:24.707Z,90.90
2018-04-19T03:49:53.569Z,90.90
2018-04-19T03:52:22.424Z,90.80
2018-04-19T03:54:51.327Z,90.90
2018-04-19T03:57:20.186Z,90.90
2018-04-19T03:59:49.043Z,90.80
2018-04-19T04:02:17.928Z,90.60
2018-04-19T04:04:46.787Z,90.60
2018-04-19T04:07:15.643Z,90.70
2018-04-19T04:09:45.291Z,90.70
2018-04-19T04:12:14.144Z,90.70
2018-04-19T04:14:43.059Z,90.90
2018-04-19T04:17:29.933Z,91.00
2018-04-19T04:20:16.719Z,91.00
2018-04-19T04:23:03.505Z,90.90
2018-04-19T04:25:32.367Z,90.70
2018-04-19T04:28:01.283Z,90.70
2018-04-19T04:30:30.151Z,90.60
2018-04-19T04:32:59.057Z,90.50
2018-04-19T04:35:28.747Z,88.00
2018-04-19T04:37:58.380Z,85.80
2018-04-19T04:40:27.237Z,85.80
2018-04-19T04:42:56.112Z,84.10
2018-04-19T04:45:24.966Z,81.90
2018-04-19T04:47:54.635Z,79.40
2018-04-19T04:50:23.528Z,79.40
2018-04-19T04:52:53.170Z,76.00
2018-04-19T04:55:22.035Z,75.90
2018-04-19T04:57:50.917Z,75.00
2018-04-19T05:00:19.811Z,72.60
2018-04-19T05:02:50.600Z,73.20
2018-04-19T05:05:19.498Z,72.40
2018-04-19T05:07:48.444Z,70.00
2018-04-19T05:10:17.357Z,68.80
2018-04-19T05:12:46.239Z,67.00
2018-04-19T05:15:15.115Z,65.20
2018-04-19T05:17:44.016Z,63.40
2018-04-19T05:20:13.655Z,60.10
2018-04-19T05:22:42.571Z,60.10
2018-04-19T05:25:11.442Z,59.30
2018-04-19T05:27:40.346Z,58.90
2018-04-19T05:30:09.253Z,59.00
2018-04-19T05:32:38.144Z,57.70
2018-04-19T05:35:07.035Z,56.50
2018-04-19T05:37:35.916Z,56.20
2018-04-19T05:40:04.803Z,55.70
2018-04-19T05:42:34.462Z,54.30
2018-04-19T05:45:03.356Z,54.30
2018-04-19T05:47:32.235Z,53.80
2018-04-19T05:50:01.133Z,52.40
2018-04-19T05:52:30.012Z,51.20
2018-04-19T05:54:58.909Z,52.00
2018-04-19T05:57:27.832Z,51.40
2018-04-19T05:59:56.744Z,50.80
2018-04-19T06:02:25.650Z,49.90
2018-04-19T06:04:54.521Z,49.90
2018-04-19T06:07:23.410Z,49.50
2018-04-19T06:09:52.331Z,51.10
2018-04-19T06:12:21.209Z,50.50
2018-04-19T06:14:50.088Z,48.20
2018-04-19T06:17:18.999Z,48.70
2018-04-19T06:19:47.874Z,47.90
2018-04-19T06:22:16.799Z,47.90
2018-04-19T06:24:46.431Z,45.50
2018-04-19T06:27:15.343Z,45.50
2018-04-19T06:29:44.261Z,45.00
2018-04-19T06:32:13.136Z,48.50
2018-04-19T06:34:42.008Z,47.40
2018-04-19T06:37:10.907Z,46.00
2018-04-19T06:39:39.795Z,46.00
2018-04-19T06:42:08.671Z,45.60
2018-04-19T06:44:37.596Z,43.90
2018-04-19T06:47:07.255Z,42.60
2018-04-19T06:49:36.171Z,42.60
2018-04-19T06:52:05.058Z,43.00
2018-04-19T06:54:33.939Z,43.70
2018-04-19T06:57:02.867Z,41.20
2018-04-19T06:59:31.742Z,42.10
2018-04-19T07:02:00.620Z,39.90
2018-04-19T07:04:29.515Z,41.50
2018-04-19T07:06:59.149Z,42.50
2018-04-19T07:09:28.083Z,42.40
2018-04-19T07:11:56.959Z,40.30
2018-04-19T07:14:25.867Z,40.20
2018-04-19T07:16:54.785Z,40.30
2018-04-19T07:19:23.661Z,39.10
2018-04-19T07:21:52.567Z,38.90
2018-04-19T07:24:21.463Z,36.80
2018-04-19T07:26:50.359Z,38.80
2018-04-19T07:29:19.271Z,37.30
2018-04-19T07:31:48.927Z,38.10
2018-04-19T07:34:17.833Z,38.00
2018-04-19T07:36:47.498Z,37.70
2018-04-19T07:39:16.381Z,37.60
2018-04-19T07:41:45.265Z,38.40
2018-04-19T07:44:14.176Z,38.00
2018-04-19T07:46:43.048Z,34.20
2018-04-19T07:49:11.975Z,34.70
2018-04-19T07:51:40.891Z,32.30
2018-04-19T07:54:10.534Z,33.90
2018-04-19T07:56:39.407Z,34.00
2018-04-19T07:59:08.308Z,36.00
2018-04-19T08:01:37.187Z,37.30
2018-04-19T08:04:06.872Z,36.70
2018-04-19T08:06:35.750Z,36.70
2018-04-19T08:09:05.453Z,36.80
2018-04-19T08:11:35.191Z,36.20
2018-04-19T08:14:04.064Z,36.20
2018-04-19T08:16:33.092Z,33.70
2018-04-19T08:19:02.035Z,33.10
2018-04-19T08:21:30.903Z,31.70
2018-04-19T08:23:59.807Z,32.50
2018-04-19T08:26:28.710Z,29.30
2018-04-19T08:28:57.640Z,30.90
2018-04-19T08:31:26.519Z,28.80
2018-04-19T08:33:55.435Z,29.00
2018-04-19T08:36:25.072Z,27.90
2018-04-19T08:38:54.166Z,27.90
2018-04-19T08:41:23.086Z,28.60
2018-04-19T08:43:52.779Z,30.20
2018-04-19T08:46:22.520Z,30.70
2018-04-19T08:48:51.391Z,30.70
2018-04-19T08:51:20.286Z,27.60
2018-04-19T08:53:49.163Z,27.50
2018-04-19T08:56:18.051Z,28.80
2018-04-19T08:58:46.924Z,30.20
2018-04-19T09:01:15.815Z,31.80
2018-04-19T09:03:45.456Z,31.10
2018-04-19T09:06:14.347Z,31.00
2018-04-19T09:08:43.236Z,31.40
2018-04-19T09:11:12.129Z,29.30
2018-04-19T09:13:41.772Z,31.20
2018-04-19T09:16:10.693Z,31.30
2018-04-19T09:18:40.331Z,30.50
2018-04-19T09:21:10.000Z,29.40
2018-04-19T09:23:38.893Z,29.30
2018-04-19T09:26:08.104Z,28.70
2018-04-19T09:28:37.027Z,29.00
2018-04-19T09:31:06.664Z,33.60
2018-04-19T09:33:35.529Z,33.60
2018-04-19T09:36:04.473Z,29.70
2018-04-19T09:38:34.112Z,29.80
2018-04-19T09:41:03.016Z,29.80
2018-04-19T09:43:31.945Z,33.90
2018-04-19T09:46:00.887Z,30.50
2018-04-19T09:48:30.523Z,33.60
2018-04-19T09:50:59.427Z,33.60
2018-04-19T09:53:28.322Z,33.10
2018-04-19T09:55:57.192Z,31.00
2018-04-19T09:58:26.184Z,29.60
2018-04-19T10:01:00.545Z,32.60
2018-04-19T10:03:29.468Z,33.90
2018-04-19T10:06:00.204Z,29.50
2018-04-19T10:08:29.124Z,29.70
2018-04-19T10:10:57.996Z,30.70
2018-04-19T10:13:26.881Z,30.10
2018-04-19T10:15:56.567Z,29.60
2018-04-19T10:18:25.559Z,29.60
2018-04-19T10:20:54.492Z,33.70
2018-04-19T10:23:23.360Z,30.00
2018-04-19T10:25:52.251Z,31.70
2018-04-19T10:28:21.687Z,33.50
2018-04-19T10:30:50.610Z,27.70
2018-04-19T10:33:19.485Z,29.90
2018-04-19T10:35:48.388Z,26.70
2018-04-19T10:38:17.261Z,27.10
2018-04-19T10:40:46.128Z,29.70
2018-04-19T10:43:15.095Z,28.00
2018-04-19T10:45:44.048Z,28.90
2018-04-19T10:48:14.006Z,25.60
2018-04-19T10:50:42.963Z,27.60
2018-04-19T10:53:11.847Z,28.60
2018-04-19T10:55:41.583Z,31.20
2018-04-19T10:58:10.467Z,31.20
2018-04-19T11:00:39.383Z,31.50
2018-04-19T11:03:08.262Z,29.20
2018-04-19T11:05:37.138Z,30.00
2018-04-19T11:08:06.025Z,28.70
2018-04-19T11:10:35.699Z,28.20
2018-04-19T11:13:04.643Z,28.20
2018-04-19T11:15:34.190Z,33.30
2018-04-19T11:18:03.906Z,30.60
2018-04-19T11:20:32.772Z,30.60
2018-04-19T11:23:01.640Z,29.50
2018-04-19T11:25:30.535Z,27.80
2018-04-19T11:27:59.428Z,28.80
2018-04-19T11:30:29.068Z,28.30
2018-04-19T11:32:57.940Z,28.30
2018-04-19T11:35:26.847Z,29.00
2018-04-19T11:37:55.722Z,28.00
2018-04-19T11:40:24.595Z,32.30
2018-04-19T11:42:53.516Z,27.80
2018-04-19T11:45:22.426Z,30.10
2018-04-19T11:47:51.303Z,28.90
2018-04-19T11:50:20.232Z,27.90
2018-04-19T11:52:49.108Z,29.40
2018-04-19T11:55:17.984Z,27.90
2018-04-19T11:57:46.887Z,30.30
2018-04-19T12:00:15.769Z,30.40
2018-04-19T12:02:44.642Z,28.60
2018-04-19T12:05:13.564Z,30.00
2018-04-19T12:07:43.205Z,29.30
2018-04-19T12:10:12.079Z,29.20
2018-04-19T12:12:40.991Z,29.70
2018-04-19T12:15:09.864Z,29.40
2018-04-19T12:17:38.771Z,30.10
2018-04-19T12:20:07.713Z,28.50
2018-04-19T12:22:36.581Z,27.90
2018-04-19T12:25:05.466Z,27.70
2018-04-19T12:27:34.371Z,28.90
2018-04-19T12:30:03.279Z,28.70
2018-04-19T12:32:32.174Z,28.80
2018-04-19T12:35:01.103Z,29.20
2018-04-19T12:37:30.021Z,32.50
2018-04-19T12:39:58.872Z,34.60
2018-04-19T12:42:27.783Z,30.70
2018-04-19T12:44:56.651Z,34.40
2018-04-19T12:47:25.526Z,30.00
2018-04-19T12:49:54.430Z,29.60
2018-04-19T12:52:24.066Z,31.00
2018-04-19T12:54:52.936Z,31.60
2018-04-19T12:57:21.827Z,32.60
2018-04-19T12:59:50.799Z,30.10
2018-04-19T13:02:19.667Z,29.80
2018-04-19T13:04:48.564Z,30.00
2018-04-19T13:07:17.471Z,29.20
2018-04-19T13:09:46.411Z,28.70
2018-04-19T13:12:15.298Z,33.20
2018-04-19T13:14:44.202Z,32.30
2018-04-19T13:17:13.840Z,29.00
2018-04-19T13:19:42.731Z,29.00
2018-04-19T13:22:11.636Z,29.10
2018-04-19T13:24:41.302Z,28.40
2018-04-19T13:27:10.213Z,28.40
2018-04-19T13:29:39.852Z,30.00
2018-04-19T13:32:08.736Z,30.00
2018-04-19T13:34:37.733Z,31.50
2018-04-19T13:37:06.657Z,31.20
2018-04-19T13:39:35.531Z,30.20
2018-04-19T13:42:04.406Z,32.10
2018-04-19T13:44:33.300Z,31.00
2018-04-19T13:47:02.176Z,31.90
2018-04-19T13:49:31.089Z,29.90
2018-04-19T13:51:59.992Z,32.60
2018-04-19T13:54:29.629Z,32.60
2018-04-19T13:56:58.549Z,32.60
2018-04-19T13:59:28.236Z,32.00
2018-04-19T14:01:57.207Z,32.00
2018-04-19T14:04:26.091Z,30.50
2018-04-19T14:06:55.771Z,30.70
2018-04-19T14:09:24.647Z,30.70
2018-04-19T14:11:54.323Z,33.00
2018-04-19T14:14:23.289Z,33.00
2018-04-19T14:16:52.196Z,33.30
2018-04-19T14:19:21.058Z,30.40
2018-04-19T14:21:49.956Z,30.40
2018-04-19T14:24:19.610Z,29.00
2018-04-19T14:26:48.490Z,29.00
2018-04-19T14:29:17.397Z,29.40
2018-04-19T14:31:47.060Z,29.50
2018-04-19T14:34:15.956Z,29.50
2018-04-19T14:36:44.852Z,32.10
2018-04-19T14:39:14.532Z,32.40
2018-04-19T14:41:44.204Z,30.00
2018-04-19T14:44:13.098Z,30.00
2018-04-19T14:46:42.763Z,29.60
2018-04-19T14:49:11.685Z,29.60
2018-04-19T14:51:40.613Z,29.90
2018-04-19T14:54:09.512Z,29.50
2018-04-19T14:56:39.155Z,31.00
2018-04-19T14:59:08.031Z,30.50
2018-04-19T15:01:36.924Z,30.30
2018-04-19T15:04:05.795Z,30.10
2018-04-19T15:06:34.692Z,30.00
2018-04-19T15:09:03.635Z,29.70
2018-04-19T15:11:32.536Z,29.10
2018-04-19T15:14:01.469Z,29.00
2018-04-19T15:16:30.371Z,29.30
2018-04-19T15:19:00.199Z,30.20
2018-04-19T15:21:29.875Z,30.90
2018-04-19T15:23:58.772Z,30.90
2018-04-19T15:26:27.676Z,30.80
2018-04-19T15:28:56.714Z,30.20
2018-04-19T15:31:25.588Z,28.80
2018-04-19T15:33:54.911Z,29.30
2018-04-19T15:36:23.789Z,30.40
2018-04-19T15:38:52.667Z,30.50
2018-04-19T15:41:21.717Z,29.50
2018-04-19T15:43:50.559Z,29.20
2018-04-19T15:46:19.435Z,29.90
2018-04-19T15:48:48.331Z,29.50
2018-04-19T15:51:17.211Z,29.20
2018-04-19T15:53:46.895Z,30.20
2018-04-19T15:56:15.767Z,30.20
2018-04-19T15:58:44.640Z,29.80
2018-04-19T16:01:13.569Z,30.20
2018-04-19T16:03:42.440Z,30.00
2018-04-19T16:06:11.329Z,30.50
2018-04-19T16:08:40.231Z,31.10
2018-04-19T16:11:09.127Z,30.00
2018-04-19T16:13:38.793Z,29.70
2018-04-19T16:16:07.685Z,29.70
2018-04-19T16:18:36.598Z,30.50
2018-04-19T16:21:05.583Z,31.10
2018-04-19T16:23:35.224Z,31.70
2018-04-19T16:26:04.133Z,31.70
2018-04-19T16:28:33.042Z,31.50
2018-04-19T16:31:01.920Z,31.30
2018-04-19T16:33:30.819Z,30.70
2018-04-19T16:35:59.703Z,31.10
2018-04-19T16:38:28.575Z,31.20
2018-04-19T16:40:57.608Z,31.30
2018-04-19T16:43:26.499Z,31.70
2018-04-19T16:45:55.387Z,31.90
2018-04-19T16:48:24.835Z,31.80
2018-04-19T16:50:53.719Z,32.00
2018-04-19T16:53:22.605Z,32.00
2018-04-19T16:55:51.490Z,32.00
2018-04-19T16:58:20.529Z,32.80
2018-04-19T17:00:49.535Z,33.00
2018-04-19T17:03:18.407Z,35.60
2018-04-19T17:05:47.276Z,38.30
2018-04-19T17:08:16.187Z,40.80
2018-04-19T17:10:45.088Z,43.30
2018-04-19T17:13:14.743Z,46.80
2018-04-19T17:15:43.612Z,46.80
2018-04-19T17:18:12.521Z,47.00
2018-04-19T17:20:41.392Z,47.70
2018-04-19T17:23:10.264Z,48.40
2018-04-19T17:25:39.939Z,49.60
2018-04-19T17:28:08.865Z,50.00
2018-04-19T17:30:37.741Z,50.80
2018-04-19T17:33:06.631Z,51.60
2018-04-19T17:35:35.508Z,52.30
2018-04-19T17:38:04.403Z,52.70
2018-04-19T17:40:33.295Z,52.90
2018-04-19T17:43:02.239Z,52.90
2018-04-19T17:45:31.112Z,51.90
2018-04-19T17:47:59.985Z,51.80
2018-04-19T17:50:28.891Z,51.60
2018-04-19T17:52:57.785Z,51.00
2018-04-19T17:55:31.183Z,50.90
2018-04-19T17:58:01.388Z,50.00
2018-04-19T18:00:31.055Z,53.30
2018-04-19T18:02:59.946Z,53.80
2018-04-19T18:05:28.851Z,55.50
2018-04-19T18:08:00.178Z,56.80
2018-04-19T18:10:29.088Z,56.70
2018-04-19T18:12:58.008Z,58.40
2018-04-19T18:15:27.675Z,58.60
2018-04-19T18:17:57.360Z,58.80
2018-04-19T18:20:26.267Z,58.80
2018-04-19T18:22:55.972Z,58.60
2018-04-19T18:25:25.652Z,58.70
2018-04-19T18:27:55.700Z,58.70
2018-04-19T18:30:24.623Z,58.40
2018-04-19T18:32:54.275Z,59.50
2018-04-19T18:35:23.195Z,58.90
2018-04-19T18:37:52.884Z,60.20
2018-04-19T18:40:22.719Z,60.20
2018-04-19T18:42:51.589Z,61.60
2018-04-19T18:45:20.519Z,62.40
2018-04-19T18:47:49.393Z,62.70
2018-04-19T18:50:18.263Z,63.00
2018-04-19T18:52:47.167Z,62.40
2018-04-19T18:55:16.848Z,61.20
2018-04-19T18:57:45.723Z,61.20
2018-04-19T19:00:14.623Z,62.30
2018-04-19T19:02:43.499Z,63.20
2018-04-19T19:05:12.399Z,63.50
2018-04-19T19:07:41.300Z,64.50
2018-04-19T19:10:10.232Z,65.40
2018-04-19T19:12:39.175Z,66.20
2018-04-19T19:15:22.699Z,66.50
2018-04-19T19:18:10.180Z,66.50
2018-04-19T19:20:39.709Z,66.50
2018-04-19T19:23:08.664Z,66.40
2018-04-19T19:25:38.530Z,66.80
2018-04-19T19:28:07.656Z,67.60
2018-04-19T19:30:37.593Z,68.30
2018-04-19T19:33:06.650Z,68.30
2018-04-19T19:35:35.750Z,69.10
2018-04-19T19:38:04.720Z,69.90
2018-04-19T19:40:33.728Z,70.10
2018-04-19T19:43:03.598Z,70.70
2018-04-19T19:45:32.478Z,70.70
2018-04-19T19:48:01.355Z,70.70
2018-04-19T19:50:30.266Z,70.60
2018-04-19T19:52:59.202Z,70.70
2018-04-19T19:55:28.179Z,71.00
2018-04-19T19:57:57.141Z,71.00
2018-04-19T20:00:26.041Z,70.90
2018-04-19T20:02:54.912Z,69.70
2018-04-19T20:05:24.108Z,70.00
2018-04-19T20:07:52.975Z,69.90
2018-04-19T20:10:21.883Z,70.40
2018-04-19T20:12:50.760Z,71.00
2018-04-19T20:15:19.639Z,71.60
2018-04-19T20:17:49.329Z,72.90
2018-04-19T20:20:18.220Z,72.80
2018-04-19T20:22:48.389Z,74.00
2018-04-19T20:25:17.320Z,73.80
2018-04-19T20:27:46.192Z,74.30
2018-04-19T20:30:15.104Z,74.30
2018-04-19T20:32:43.979Z,74.40
2018-04-19T20:35:12.871Z,74.60
2018-04-19T20:37:41.764Z,74.70
2018-04-19T20:40:11.445Z,75.50
2018-04-19T20:42:40.522Z,75.50
2018-04-19T20:45:09.744Z,75.40
2018-04-19T20:47:38.871Z,75.60
2018-04-19T20:50:07.755Z,75.70
2018-04-19T20:52:36.720Z,75.80
2018-04-19T20:55:06.381Z,76.40
2018-04-19T20:57:35.286Z,76.40
2018-04-19T21:00:04.235Z,76.50
2018-04-19T21:02:33.609Z,76.70
2018-04-19T21:05:02.756Z,77.00
2018-04-19T21:07:31.751Z,77.00
2018-04-19T21:10:01.468Z,77.30
2018-04-19T21:12:30.373Z,77.30
2018-04-19T21:14:59.587Z,77.50
2018-04-19T21:17:28.455Z,78.20
2018-04-19T21:19:57.351Z,78.00
2018-04-19T21:22:27.031Z,77.90
2018-04-19T21:24:56.692Z,78.00
2018-04-19T21:27:25.638Z,78.00
2018-04-19T21:29:57.894Z,78.40
2018-04-19T21:32:37.428Z,78.70
2018-04-19T21:35:06.543Z,79.20
2018-04-19T21:37:36.554Z,79.10
2018-04-19T21:40:06.413Z,79.00
2018-04-19T21:42:35.525Z,79.00
2018-04-19T21:45:04.565Z,79.30
2018-04-19T21:47:34.495Z,80.20
2018-04-19T21:50:13.632Z,80.10
2018-04-19T21:52:42.766Z,80.30
2018-04-19T21:55:15.957Z,80.30
2018-04-19T21:57:45.918Z,81.30
2018-04-19T22:00:14.941Z,81.20
2018-04-19T22:02:44.612Z,81.10
2018-04-19T22:05:13.503Z,81.00
2018-04-19T22:07:42.379Z,80.90
2018-04-19T22:10:12.532Z,80.90
2018-04-19T22:12:42.188Z,81.00
2018-04-19T22:15:11.851Z,81.30
2018-04-19T22:17:41.748Z,81.10
2018-04-19T22:20:10.688Z,81.20
2018-04-19T22:22:39.586Z,81.40
2018-04-19T22:25:08.474Z,81.70
2018-04-19T22:27:37.423Z,81.90
2018-04-19T22:30:06.436Z,81.90
2018-04-19T22:32:36.377Z,82.30
2018-04-19T22:35:05.262Z,82.60
2018-04-19T22:37:34.900Z,82.70
2018-04-19T22:40:03.847Z,82.60
2018-04-19T22:42:32.730Z,82.70
2018-04-19T22:45:01.643Z,82.70
2018-04-19T22:47:30.563Z,82.90
2018-04-19T22:49:59.449Z,82.90
2018-04-19T22:52:28.318Z,83.10
2018-04-19T22:54:57.235Z,83.10
2018-04-19T22:57:26.106Z,83.30
2018-04-19T22:59:54.970Z,83.30
2018-04-19T23:02:23.862Z,83.50
2018-04-19T23:04:52.752Z,83.80
2018-04-19T23:07:21.665Z,83.60
2018-04-19T23:09:50.540Z,83.50
2018-04-19T23:12:19.444Z,83.40
2018-04-19T23:14:48.358Z,83.50
2018-04-19T23:17:18.005Z,83.90
2018-04-19T23:19:46.959Z,83.80
2018-04-19T23:22:15.904Z,83.90
2018-04-19T23:24:45.563Z,84.00
2018-04-19T23:27:14.433Z,83.90
2018-04-19T23:29:43.300Z,85.40
2018-04-19T23:32:12.194Z,84.80
2018-04-19T23:34:41.071Z,84.70
2018-04-19T23:37:09.986Z,85.10
2018-04-19T23:39:38.855Z,85.00
2018-04-19T23:42:07.720Z,85.30
2018-04-19T23:44:37.395Z,85.40
2018-04-19T23:47:06.311Z,85.40
2018-04-19T23:49:35.179Z,85.60
2018-04-19T23:52:04.087Z,85.80
2018-04-19T23:54:32.961Z,85.80
2018-04-19T23:57:01.855Z,85.60
2018-04-19T23:59:30.760Z,85.80
